sensor_id;sensor_type;location;lat;lon;timestamp;P1;durP1;ratioP1;P2;durP2;ratioP2
35326;SDS011;21436;52.348;20.928;2023-03-01T00:01:21;100.53;;;37.33;;
35326;SDS011;21436;52.348;20.928;2023-03-01T00:03:50;92.55;;;38.72;;
35326;SDS011;21436;52.348;20.928;2023-03-01T00:06:18;99.47;;;40.38;;
35326;SDS011;21436;52.348;20.928;2023-03-01T00:08:47;94.05;;;38.58;;
35326;SDS011;21436;52.348;20.928;2023-03-01T00:11:16;99.32;;;39.85;;
35326;SDS011;21436;52.348;20.928;2023-03-01T00:13:49;102.70;;;38.20;;
35326;SDS011;21436;52.348;20.928;2023-03-01T00:16:20;104.03;;;39.67;;
35326;SDS011;21436;52.348;20.928;2023-03-01T00:18:53;98.30;;;37.08;;
35326;SDS011;21436;52.348;20.928;2023-03-01T00:21:21;96.72;;;36.97;;
35326;SDS011;21436;52.348;20.928;2023-03-01T00:23:50;99.85;;;37.92;;
35326;SDS011;21436;52.348;20.928;2023-03-01T00:26:18;94.05;;;39.35;;
35326;SDS011;21436;52.348;20.928;2023-03-01T00:28:47;96.30;;;36.83;;
35326;SDS011;21436;52.348;20.928;2023-03-01T00:31:16;134.60;;;37.00;;
35326;SDS011;21436;52.348;20.928;2023-03-01T00:33:45;121.13;;;38.28;;
35326;SDS011;21436;52.348;20.928;2023-03-01T00:36:14;89.53;;;36.25;;
35326;SDS011;21436;52.348;20.928;2023-03-01T00:38:43;84.50;;;35.40;;
35326;SDS011;21436;52.348;20.928;2023-03-01T00:41:12;93.00;;;35.85;;
35326;SDS011;21436;52.348;20.928;2023-03-01T00:43:41;95.53;;;36.17;;
35326;SDS011;21436;52.348;20.928;2023-03-01T00:46:13;91.45;;;36.13;;
35326;SDS011;21436;52.348;20.928;2023-03-01T00:48:42;91.88;;;35.45;;
35326;SDS011;21436;52.348;20.928;2023-03-01T00:51:11;87.65;;;34.42;;
35326;SDS011;21436;52.348;20.928;2023-03-01T00:53:41;87.80;;;35.55;;
35326;SDS011;21436;52.348;20.928;2023-03-01T00:56:09;89.00;;;34.88;;
35326;SDS011;21436;52.348;20.928;2023-03-01T00:58:38;89.78;;;36.22;;
35326;SDS011;21436;52.348;20.928;2023-03-01T01:01:09;96.45;;;37.15;;
35326;SDS011;21436;52.348;20.928;2023-03-01T01:03:45;85.90;;;35.33;;
35326;SDS011;21436;52.348;20.928;2023-03-01T01:06:20;94.70;;;35.37;;
35326;SDS011;21436;52.348;20.928;2023-03-01T01:09:15;90.55;;;34.83;;
35326;SDS011;21436;52.348;20.928;2023-03-01T01:11:47;91.38;;;34.08;;
35326;SDS011;21436;52.348;20.928;2023-03-01T01:14:18;83.50;;;33.30;;
35326;SDS011;21436;52.348;20.928;2023-03-01T01:16:45;89.05;;;35.33;;
35326;SDS011;21436;52.348;20.928;2023-03-01T01:19:14;100.18;;;35.78;;
35326;SDS011;21436;52.348;20.928;2023-03-01T01:21:42;95.75;;;35.30;;
35326;SDS011;21436;52.348;20.928;2023-03-01T01:24:10;85.05;;;34.47;;
35326;SDS011;21436;52.348;20.928;2023-03-01T01:26:38;92.45;;;35.97;;
35326;SDS011;21436;52.348;20.928;2023-03-01T01:29:06;85.15;;;33.45;;
35326;SDS011;21436;52.348;20.928;2023-03-01T01:31:34;88.38;;;35.10;;
35326;SDS011;21436;52.348;20.928;2023-03-01T01:34:03;96.63;;;34.47;;
35326;SDS011;21436;52.348;20.928;2023-03-01T01:36:33;92.40;;;35.60;;
35326;SDS011;21436;52.348;20.928;2023-03-01T01:39:01;96.22;;;36.80;;
35326;SDS011;21436;52.348;20.928;2023-03-01T01:41:29;90.70;;;35.47;;
35326;SDS011;21436;52.348;20.928;2023-03-01T01:44:17;94.85;;;36.00;;
35326;SDS011;21436;52.348;20.928;2023-03-01T01:46:52;86.88;;;32.97;;
35326;SDS011;21436;52.348;20.928;2023-03-01T01:52:00;89.40;;;34.35;;
35326;SDS011;21436;52.348;20.928;2023-03-01T01:54:53;87.90;;;32.53;;
35326;SDS011;21436;52.348;20.928;2023-03-01T01:57:46;82.45;;;32.47;;
35326;SDS011;21436;52.348;20.928;2023-03-01T02:00:20;89.53;;;34.63;;
35326;SDS011;21436;52.348;20.928;2023-03-01T02:02:56;90.78;;;36.08;;
35326;SDS011;21436;52.348;20.928;2023-03-01T02:08:33;85.10;;;32.95;;
35326;SDS011;21436;52.348;20.928;2023-03-01T02:11:04;91.82;;;33.72;;
35326;SDS011;21436;52.348;20.928;2023-03-01T02:13:32;78.78;;;32.22;;
35326;SDS011;21436;52.348;20.928;2023-03-01T02:16:04;81.35;;;31.35;;
35326;SDS011;21436;52.348;20.928;2023-03-01T02:18:32;88.30;;;33.78;;
35326;SDS011;21436;52.348;20.928;2023-03-01T02:23:28;82.57;;;31.10;;
35326;SDS011;21436;52.348;20.928;2023-03-01T02:26:11;85.68;;;33.13;;
35326;SDS011;21436;52.348;20.928;2023-03-01T02:28:55;95.97;;;34.63;;
35326;SDS011;21436;52.348;20.928;2023-03-01T02:31:23;82.72;;;32.53;;
35326;SDS011;21436;52.348;20.928;2023-03-01T02:34:15;89.63;;;33.85;;
35326;SDS011;21436;52.348;20.928;2023-03-01T02:36:48;86.70;;;31.85;;
35326;SDS011;21436;52.348;20.928;2023-03-01T02:41:47;86.32;;;32.60;;
35326;SDS011;21436;52.348;20.928;2023-03-01T02:44:17;79.35;;;32.63;;
35326;SDS011;21436;52.348;20.928;2023-03-01T02:46:49;95.63;;;34.72;;
35326;SDS011;21436;52.348;20.928;2023-03-01T02:49:19;91.53;;;35.38;;
35326;SDS011;21436;52.348;20.928;2023-03-01T02:54:56;92.13;;;35.85;;
35326;SDS011;21436;52.348;20.928;2023-03-01T02:57:37;97.90;;;37.53;;
35326;SDS011;21436;52.348;20.928;2023-03-01T03:00:19;104.90;;;39.58;;
35326;SDS011;21436;52.348;20.928;2023-03-01T03:02:50;109.07;;;39.08;;
35326;SDS011;21436;52.348;20.928;2023-03-01T03:05:24;100.82;;;37.05;;
35326;SDS011;21436;52.348;20.928;2023-03-01T03:07:56;107.50;;;36.95;;
35326;SDS011;21436;52.348;20.928;2023-03-01T03:10:27;89.00;;;34.03;;
35326;SDS011;21436;52.348;20.928;2023-03-01T03:12:57;93.10;;;34.63;;
35326;SDS011;21436;52.348;20.928;2023-03-01T03:15:27;88.43;;;34.95;;
35326;SDS011;21436;52.348;20.928;2023-03-01T03:17:56;88.10;;;35.25;;
35326;SDS011;21436;52.348;20.928;2023-03-01T03:20:26;98.75;;;34.80;;
35326;SDS011;21436;52.348;20.928;2023-03-01T03:22:55;86.32;;;34.55;;
35326;SDS011;21436;52.348;20.928;2023-03-01T03:25:25;84.63;;;34.63;;
35326;SDS011;21436;52.348;20.928;2023-03-01T03:27:55;88.35;;;34.33;;
35326;SDS011;21436;52.348;20.928;2023-03-01T03:30:25;90.00;;;34.33;;
35326;SDS011;21436;52.348;20.928;2023-03-01T03:32:55;90.82;;;34.50;;
35326;SDS011;21436;52.348;20.928;2023-03-01T03:37:52;88.88;;;34.05;;
35326;SDS011;21436;52.348;20.928;2023-03-01T03:40:39;83.68;;;31.33;;
35326;SDS011;21436;52.348;20.928;2023-03-01T03:43:09;87.25;;;32.22;;
35326;SDS011;21436;52.348;20.928;2023-03-01T03:45:39;80.00;;;32.33;;
35326;SDS011;21436;52.348;20.928;2023-03-01T03:48:07;87.97;;;33.60;;
35326;SDS011;21436;52.348;20.928;2023-03-01T03:50:39;87.45;;;32.95;;
35326;SDS011;21436;52.348;20.928;2023-03-01T03:53:08;84.35;;;33.28;;
35326;SDS011;21436;52.348;20.928;2023-03-01T03:55:37;89.63;;;33.17;;
35326;SDS011;21436;52.348;20.928;2023-03-01T03:58:08;86.90;;;32.38;;
35326;SDS011;21436;52.348;20.928;2023-03-01T04:00:40;92.45;;;33.63;;
35326;SDS011;21436;52.348;20.928;2023-03-01T04:05:38;74.90;;;31.17;;
35326;SDS011;21436;52.348;20.928;2023-03-01T04:08:07;81.35;;;31.20;;
35326;SDS011;21436;52.348;20.928;2023-03-01T04:10:39;94.15;;;35.72;;
35326;SDS011;21436;52.348;20.928;2023-03-01T04:13:12;91.15;;;35.33;;
35326;SDS011;21436;52.348;20.928;2023-03-01T04:15:41;91.53;;;32.85;;
35326;SDS011;21436;52.348;20.928;2023-03-01T04:18:14;78.85;;;32.40;;
35326;SDS011;21436;52.348;20.928;2023-03-01T04:20:42;79.72;;;31.73;;
35326;SDS011;21436;52.348;20.928;2023-03-01T04:23:13;88.78;;;32.53;;
35326;SDS011;21436;52.348;20.928;2023-03-01T04:25:55;83.03;;;31.58;;
35326;SDS011;21436;52.348;20.928;2023-03-01T04:30:56;84.75;;;31.02;;
35326;SDS011;21436;52.348;20.928;2023-03-01T04:33:25;90.15;;;32.25;;
35326;SDS011;21436;52.348;20.928;2023-03-01T04:35:52;83.97;;;32.35;;
35326;SDS011;21436;52.348;20.928;2023-03-01T04:38:20;85.13;;;32.47;;
35326;SDS011;21436;52.348;20.928;2023-03-01T04:40:48;85.53;;;32.38;;
35326;SDS011;21436;52.348;20.928;2023-03-01T04:43:15;92.43;;;34.10;;
35326;SDS011;21436;52.348;20.928;2023-03-01T04:45:44;90.75;;;33.60;;
35326;SDS011;21436;52.348;20.928;2023-03-01T04:48:12;91.10;;;34.67;;
35326;SDS011;21436;52.348;20.928;2023-03-01T04:50:39;85.57;;;33.67;;
35326;SDS011;21436;52.348;20.928;2023-03-01T04:53:07;84.18;;;34.17;;
35326;SDS011;21436;52.348;20.928;2023-03-01T04:55:34;87.55;;;34.13;;
35326;SDS011;21436;52.348;20.928;2023-03-01T04:58:02;87.68;;;33.65;;
35326;SDS011;21436;52.348;20.928;2023-03-01T05:00:29;79.43;;;30.65;;
35326;SDS011;21436;52.348;20.928;2023-03-01T05:02:59;92.25;;;33.13;;
35326;SDS011;21436;52.348;20.928;2023-03-01T05:05:28;84.78;;;33.08;;
35326;SDS011;21436;52.348;20.928;2023-03-01T05:07:59;79.35;;;31.65;;
35326;SDS011;21436;52.348;20.928;2023-03-01T05:10:28;82.18;;;32.47;;
35326;SDS011;21436;52.348;20.928;2023-03-01T05:12:58;90.60;;;33.20;;
35326;SDS011;21436;52.348;20.928;2023-03-01T05:15:26;81.97;;;31.13;;
35326;SDS011;21436;52.348;20.928;2023-03-01T05:17:56;82.85;;;31.95;;
35326;SDS011;21436;52.348;20.928;2023-03-01T05:20:26;78.15;;;30.20;;
35326;SDS011;21436;52.348;20.928;2023-03-01T05:22:59;77.13;;;30.30;;
35326;SDS011;21436;52.348;20.928;2023-03-01T05:25:27;75.68;;;29.90;;
35326;SDS011;21436;52.348;20.928;2023-03-01T05:28:01;89.45;;;33.42;;
35326;SDS011;21436;52.348;20.928;2023-03-01T05:30:32;85.22;;;33.55;;
35326;SDS011;21436;52.348;20.928;2023-03-01T05:33:01;86.60;;;32.15;;
35326;SDS011;21436;52.348;20.928;2023-03-01T05:35:28;88.85;;;33.03;;
35326;SDS011;21436;52.348;20.928;2023-03-01T05:37:56;88.05;;;34.53;;
35326;SDS011;21436;52.348;20.928;2023-03-01T05:40:24;79.03;;;32.35;;
35326;SDS011;21436;52.348;20.928;2023-03-01T05:42:55;87.45;;;32.85;;
35326;SDS011;21436;52.348;20.928;2023-03-01T05:45:23;98.53;;;34.05;;
35326;SDS011;21436;52.348;20.928;2023-03-01T05:47:52;101.03;;;36.30;;
35326;SDS011;21436;52.348;20.928;2023-03-01T05:50:22;97.18;;;34.45;;
35326;SDS011;21436;52.348;20.928;2023-03-01T05:53:00;95.45;;;35.53;;
35326;SDS011;21436;52.348;20.928;2023-03-01T05:55:32;89.63;;;36.63;;
35326;SDS011;21436;52.348;20.928;2023-03-01T05:58:02;107.88;;;37.95;;
35326;SDS011;21436;52.348;20.928;2023-03-01T06:00:32;103.95;;;35.72;;
35326;SDS011;21436;52.348;20.928;2023-03-01T06:03:01;94.40;;;35.72;;
35326;SDS011;21436;52.348;20.928;2023-03-01T06:05:29;97.55;;;35.95;;
35326;SDS011;21436;52.348;20.928;2023-03-01T06:08:00;97.03;;;36.30;;
35326;SDS011;21436;52.348;20.928;2023-03-01T06:10:28;90.30;;;34.75;;
35326;SDS011;21436;52.348;20.928;2023-03-01T06:12:56;89.20;;;37.13;;
35326;SDS011;21436;52.348;20.928;2023-03-01T06:15:24;94.40;;;38.13;;
35326;SDS011;21436;52.348;20.928;2023-03-01T06:17:53;95.15;;;37.72;;
35326;SDS011;21436;52.348;20.928;2023-03-01T06:20:27;101.85;;;37.90;;
35326;SDS011;21436;52.348;20.928;2023-03-01T06:22:56;96.68;;;37.05;;
35326;SDS011;21436;52.348;20.928;2023-03-01T06:25:24;92.45;;;37.38;;
35326;SDS011;21436;52.348;20.928;2023-03-01T06:27:55;109.53;;;38.70;;
35326;SDS011;21436;52.348;20.928;2023-03-01T06:30:23;93.78;;;36.88;;
35326;SDS011;21436;52.348;20.928;2023-03-01T06:32:58;90.03;;;37.67;;
35326;SDS011;21436;52.348;20.928;2023-03-01T06:35:29;98.00;;;36.88;;
35326;SDS011;21436;52.348;20.928;2023-03-01T06:37:57;90.13;;;37.03;;
35326;SDS011;21436;52.348;20.928;2023-03-01T06:40:25;84.90;;;35.55;;
35326;SDS011;21436;52.348;20.928;2023-03-01T06:42:54;94.07;;;36.53;;
35326;SDS011;21436;52.348;20.928;2023-03-01T06:45:21;88.03;;;35.90;;
35326;SDS011;21436;52.348;20.928;2023-03-01T06:47:49;102.78;;;36.13;;
35326;SDS011;21436;52.348;20.928;2023-03-01T06:50:16;88.05;;;34.38;;
35326;SDS011;21436;52.348;20.928;2023-03-01T06:52:45;89.90;;;37.50;;
35326;SDS011;21436;52.348;20.928;2023-03-01T06:55:12;87.38;;;34.42;;
35326;SDS011;21436;52.348;20.928;2023-03-01T06:57:43;85.37;;;35.03;;
35326;SDS011;21436;52.348;20.928;2023-03-01T07:00:11;85.25;;;34.85;;
35326;SDS011;21436;52.348;20.928;2023-03-01T07:02:39;88.88;;;33.47;;
35326;SDS011;21436;52.348;20.928;2023-03-01T07:05:08;82.18;;;33.88;;
35326;SDS011;21436;52.348;20.928;2023-03-01T07:07:35;79.03;;;32.30;;
35326;SDS011;21436;52.348;20.928;2023-03-01T07:10:03;83.05;;;32.42;;
35326;SDS011;21436;52.348;20.928;2023-03-01T07:12:32;82.00;;;32.17;;
35326;SDS011;21436;52.348;20.928;2023-03-01T07:14:59;73.63;;;31.05;;
35326;SDS011;21436;52.348;20.928;2023-03-01T07:17:27;70.13;;;29.70;;
35326;SDS011;21436;52.348;20.928;2023-03-01T07:19:55;71.22;;;28.65;;
35326;SDS011;21436;52.348;20.928;2023-03-01T07:22:23;70.75;;;30.67;;
35326;SDS011;21436;52.348;20.928;2023-03-01T07:24:50;72.97;;;28.98;;
35326;SDS011;21436;52.348;20.928;2023-03-01T07:27:18;74.72;;;29.60;;
35326;SDS011;21436;52.348;20.928;2023-03-01T07:29:45;72.82;;;28.13;;
35326;SDS011;21436;52.348;20.928;2023-03-01T07:32:12;73.75;;;27.63;;
35326;SDS011;21436;52.348;20.928;2023-03-01T07:34:40;64.05;;;28.25;;
35326;SDS011;21436;52.348;20.928;2023-03-01T07:37:08;63.00;;;26.52;;
35326;SDS011;21436;52.348;20.928;2023-03-01T07:39:35;67.57;;;27.20;;
35326;SDS011;21436;52.348;20.928;2023-03-01T07:42:03;62.70;;;25.65;;
35326;SDS011;21436;52.348;20.928;2023-03-01T07:44:30;64.40;;;26.10;;
35326;SDS011;21436;52.348;20.928;2023-03-01T07:46:58;64.47;;;27.35;;
35326;SDS011;21436;52.348;20.928;2023-03-01T07:49:25;58.97;;;25.17;;
35326;SDS011;21436;52.348;20.928;2023-03-01T07:51:54;61.10;;;24.83;;
35326;SDS011;21436;52.348;20.928;2023-03-01T07:54:22;61.78;;;24.80;;
35326;SDS011;21436;52.348;20.928;2023-03-01T07:56:49;69.78;;;29.30;;
35326;SDS011;21436;52.348;20.928;2023-03-01T07:59:17;59.28;;;26.50;;
35326;SDS011;21436;52.348;20.928;2023-03-01T08:01:45;65.50;;;28.45;;
35326;SDS011;21436;52.348;20.928;2023-03-01T08:04:12;63.95;;;30.45;;
35326;SDS011;21436;52.348;20.928;2023-03-01T08:06:40;66.10;;;28.35;;
35326;SDS011;21436;52.348;20.928;2023-03-01T08:09:08;49.50;;;23.40;;
35326;SDS011;21436;52.348;20.928;2023-03-01T08:11:36;61.67;;;24.33;;
35326;SDS011;21436;52.348;20.928;2023-03-01T08:14:05;57.47;;;24.00;;
35326;SDS011;21436;52.348;20.928;2023-03-01T08:16:34;48.22;;;22.40;;
35326;SDS011;21436;52.348;20.928;2023-03-01T08:19:05;56.30;;;22.67;;
35326;SDS011;21436;52.348;20.928;2023-03-01T08:21:38;54.78;;;22.52;;
35326;SDS011;21436;52.348;20.928;2023-03-01T08:24:06;51.03;;;23.23;;
35326;SDS011;21436;52.348;20.928;2023-03-01T08:26:34;53.72;;;23.40;;
35326;SDS011;21436;52.348;20.928;2023-03-01T08:29:02;52.10;;;23.85;;
35326;SDS011;21436;52.348;20.928;2023-03-01T08:31:34;55.95;;;24.25;;
35326;SDS011;21436;52.348;20.928;2023-03-01T08:34:10;50.13;;;21.92;;
35326;SDS011;21436;52.348;20.928;2023-03-01T08:36:40;51.80;;;22.13;;
35326;SDS011;21436;52.348;20.928;2023-03-01T08:39:09;52.00;;;22.20;;
35326;SDS011;21436;52.348;20.928;2023-03-01T08:41:38;54.63;;;24.83;;
35326;SDS011;21436;52.348;20.928;2023-03-01T08:44:06;53.85;;;22.80;;
35326;SDS011;21436;52.348;20.928;2023-03-01T08:46:34;53.20;;;23.98;;
35326;SDS011;21436;52.348;20.928;2023-03-01T08:49:07;57.47;;;24.23;;
35326;SDS011;21436;52.348;20.928;2023-03-01T08:51:39;58.70;;;24.45;;
35326;SDS011;21436;52.348;20.928;2023-03-01T08:54:07;56.25;;;23.45;;
35326;SDS011;21436;52.348;20.928;2023-03-01T08:56:38;51.38;;;23.13;;
35326;SDS011;21436;52.348;20.928;2023-03-01T08:59:06;52.58;;;23.05;;
35326;SDS011;21436;52.348;20.928;2023-03-01T09:01:33;44.30;;;23.02;;
35326;SDS011;21436;52.348;20.928;2023-03-01T09:04:01;50.38;;;24.13;;
35326;SDS011;21436;52.348;20.928;2023-03-01T09:06:38;50.10;;;22.58;;
35326;SDS011;21436;52.348;20.928;2023-03-01T09:09:05;52.35;;;23.15;;
35326;SDS011;21436;52.348;20.928;2023-03-01T09:11:34;49.33;;;23.52;;
35326;SDS011;21436;52.348;20.928;2023-03-01T09:14:04;52.22;;;21.70;;
35326;SDS011;21436;52.348;20.928;2023-03-01T09:16:32;45.28;;;20.98;;
35326;SDS011;21436;52.348;20.928;2023-03-01T09:19:03;49.75;;;21.65;;
35326;SDS011;21436;52.348;20.928;2023-03-01T09:21:31;50.55;;;22.58;;
35326;SDS011;21436;52.348;20.928;2023-03-01T09:24:09;49.00;;;22.50;;
35326;SDS011;21436;52.348;20.928;2023-03-01T09:26:40;48.70;;;20.90;;
35326;SDS011;21436;52.348;20.928;2023-03-01T09:29:08;49.15;;;21.25;;
35326;SDS011;21436;52.348;20.928;2023-03-01T09:31:37;51.65;;;21.58;;
35326;SDS011;21436;52.348;20.928;2023-03-01T09:34:05;47.00;;;21.45;;
35326;SDS011;21436;52.348;20.928;2023-03-01T09:36:33;49.85;;;22.88;;
35326;SDS011;21436;52.348;20.928;2023-03-01T09:39:01;53.03;;;22.95;;
35326;SDS011;21436;52.348;20.928;2023-03-01T09:47:26;46.58;;;20.80;;
35326;SDS011;21436;52.348;20.928;2023-03-01T09:55:17;46.75;;;19.35;;
35326;SDS011;21436;52.348;20.928;2023-03-01T09:57:50;43.38;;;19.17;;
35326;SDS011;21436;52.348;20.928;2023-03-01T10:00:29;45.22;;;20.25;;
35326;SDS011;21436;52.348;20.928;2023-03-01T10:11:17;41.88;;;17.95;;
35326;SDS011;21436;52.348;20.928;2023-03-01T10:17:00;47.15;;;19.25;;
35326;SDS011;21436;52.348;20.928;2023-03-01T10:19:32;41.75;;;19.48;;
35326;SDS011;21436;52.348;20.928;2023-03-01T10:22:13;42.15;;;21.33;;
35326;SDS011;21436;52.348;20.928;2023-03-01T10:24:43;43.70;;;19.95;;
35326;SDS011;21436;52.348;20.928;2023-03-01T10:27:25;43.75;;;19.42;;
35326;SDS011;21436;52.348;20.928;2023-03-01T10:32:36;55.00;;;21.85;;
35326;SDS011;21436;52.348;20.928;2023-03-01T10:43:31;41.00;;;18.90;;
35326;SDS011;21436;52.348;20.928;2023-03-01T10:46:25;45.05;;;19.02;;
35326;SDS011;21436;52.348;20.928;2023-03-01T10:49:05;40.58;;;19.15;;
35326;SDS011;21436;52.348;20.928;2023-03-01T10:51:33;37.50;;;18.08;;
35326;SDS011;21436;52.348;20.928;2023-03-01T10:54:09;42.05;;;18.55;;
35326;SDS011;21436;52.348;20.928;2023-03-01T10:57:03;35.10;;;16.67;;
35326;SDS011;21436;52.348;20.928;2023-03-01T10:59:32;36.67;;;17.23;;
35326;SDS011;21436;52.348;20.928;2023-03-01T11:02:03;34.97;;;17.33;;
35326;SDS011;21436;52.348;20.928;2023-03-01T11:05:34;34.47;;;16.77;;
35326;SDS011;21436;52.348;20.928;2023-03-01T11:07:52;37.72;;;17.38;;
35326;SDS011;21436;52.348;20.928;2023-03-01T11:15:43;34.85;;;15.88;;
35326;SDS011;21436;52.348;20.928;2023-03-01T11:18:20;35.72;;;16.60;;
35326;SDS011;21436;52.348;20.928;2023-03-01T11:20:59;37.97;;;16.33;;
35326;SDS011;21436;52.348;20.928;2023-03-01T11:23:29;33.63;;;16.23;;
35326;SDS011;21436;52.348;20.928;2023-03-01T11:26:09;36.13;;;16.40;;
35326;SDS011;21436;52.348;20.928;2023-03-01T11:28:39;32.88;;;16.85;;
35326;SDS011;21436;52.348;20.928;2023-03-01T11:31:09;41.25;;;18.63;;
35326;SDS011;21436;52.348;20.928;2023-03-01T11:38:44;39.22;;;20.15;;
35326;SDS011;21436;52.348;20.928;2023-03-01T11:41:19;52.17;;;20.17;;
35326;SDS011;21436;52.348;20.928;2023-03-01T11:49:37;47.70;;;20.42;;
35326;SDS011;21436;52.348;20.928;2023-03-01T11:52:32;39.80;;;19.45;;
35326;SDS011;21436;52.348;20.928;2023-03-01T11:55:30;42.55;;;20.25;;
35326;SDS011;21436;52.348;20.928;2023-03-01T12:04:14;38.40;;;18.70;;
35326;SDS011;21436;52.348;20.928;2023-03-01T12:07:09;41.20;;;21.17;;
35326;SDS011;21436;52.348;20.928;2023-03-01T12:09:49;44.97;;;20.88;;
35326;SDS011;21436;52.348;20.928;2023-03-01T12:12:27;46.50;;;21.40;;
35326;SDS011;21436;52.348;20.928;2023-03-01T12:18:07;40.70;;;18.92;;
35326;SDS011;21436;52.348;20.928;2023-03-01T12:26:10;37.60;;;19.00;;
35326;SDS011;21436;52.348;20.928;2023-03-01T12:28:47;41.05;;;19.20;;
35326;SDS011;21436;52.348;20.928;2023-03-01T12:43:04;46.83;;;19.00;;
35326;SDS011;21436;52.348;20.928;2023-03-01T12:50:59;33.78;;;17.80;;
35326;SDS011;21436;52.348;20.928;2023-03-01T12:53:40;39.13;;;17.83;;
35326;SDS011;21436;52.348;20.928;2023-03-01T12:56:10;39.47;;;18.70;;
35326;SDS011;21436;52.348;20.928;2023-03-01T12:58:41;35.72;;;18.85;;
35326;SDS011;21436;52.348;20.928;2023-03-01T13:13:21;37.65;;;18.30;;
35326;SDS011;21436;52.348;20.928;2023-03-01T13:17:49;38.28;;;18.00;;
35326;SDS011;21436;52.348;20.928;2023-03-01T13:21:04;38.83;;;17.53;;
35326;SDS011;21436;52.348;20.928;2023-03-01T13:26:09;40.72;;;18.63;;
35326;SDS011;21436;52.348;20.928;2023-03-01T13:31:09;39.22;;;18.05;;
35326;SDS011;21436;52.348;20.928;2023-03-01T13:36:11;37.85;;;18.02;;
35326;SDS011;21436;52.348;20.928;2023-03-01T13:39:02;36.72;;;18.88;;
35326;SDS011;21436;52.348;20.928;2023-03-01T13:41:50;37.00;;;18.55;;
35326;SDS011;21436;52.348;20.928;2023-03-01T13:47:21;38.72;;;17.70;;
35326;SDS011;21436;52.348;20.928;2023-03-01T13:49:59;39.50;;;20.30;;
35326;SDS011;21436;52.348;20.928;2023-03-01T13:57:41;37.35;;;18.85;;
35326;SDS011;21436;52.348;20.928;2023-03-01T14:03:11;36.08;;;18.42;;
35326;SDS011;21436;52.348;20.928;2023-03-01T14:05:57;40.45;;;19.45;;
35326;SDS011;21436;52.348;20.928;2023-03-01T14:08:45;37.42;;;18.70;;
35326;SDS011;21436;52.348;20.928;2023-03-01T14:19:46;39.60;;;19.58;;
35326;SDS011;21436;52.348;20.928;2023-03-01T14:22:28;41.63;;;19.45;;
35326;SDS011;21436;52.348;20.928;2023-03-01T14:25:00;38.78;;;18.48;;
35326;SDS011;21436;52.348;20.928;2023-03-01T14:27:38;40.22;;;19.20;;
35326;SDS011;21436;52.348;20.928;2023-03-01T14:33:03;36.67;;;18.77;;
35326;SDS011;21436;52.348;20.928;2023-03-01T14:35:34;38.80;;;18.02;;
35326;SDS011;21436;52.348;20.928;2023-03-01T14:38:03;41.85;;;18.85;;
35326;SDS011;21436;52.348;20.928;2023-03-01T14:40:35;41.45;;;20.92;;
35326;SDS011;21436;52.348;20.928;2023-03-01T14:43:21;34.22;;;19.05;;
35326;SDS011;21436;52.348;20.928;2023-03-01T14:45:49;41.47;;;20.02;;
35326;SDS011;21436;52.348;20.928;2023-03-01T14:48:18;41.08;;;20.02;;
35326;SDS011;21436;52.348;20.928;2023-03-01T14:50:46;33.83;;;19.40;;
35326;SDS011;21436;52.348;20.928;2023-03-01T14:53:48;42.70;;;20.30;;
35326;SDS011;21436;52.348;20.928;2023-03-01T14:56:17;37.47;;;20.40;;
35326;SDS011;21436;52.348;20.928;2023-03-01T14:58:46;35.95;;;19.50;;
35326;SDS011;21436;52.348;20.928;2023-03-01T15:01:23;37.20;;;20.27;;
35326;SDS011;21436;52.348;20.928;2023-03-01T15:03:54;42.50;;;22.92;;
35326;SDS011;21436;52.348;20.928;2023-03-01T15:06:22;34.63;;;19.52;;
35326;SDS011;21436;52.348;20.928;2023-03-01T15:08:52;42.30;;;23.50;;
35326;SDS011;21436;52.348;20.928;2023-03-01T15:11:31;81.95;;;42.00;;
35326;SDS011;21436;52.348;20.928;2023-03-01T15:14:00;55.60;;;33.80;;
35326;SDS011;21436;52.348;20.928;2023-03-01T15:16:31;59.75;;;37.63;;
35326;SDS011;21436;52.348;20.928;2023-03-01T15:21:33;52.42;;;31.02;;
35326;SDS011;21436;52.348;20.928;2023-03-01T15:26:39;47.90;;;25.65;;
35326;SDS011;21436;52.348;20.928;2023-03-01T15:29:22;43.63;;;22.95;;
35326;SDS011;21436;52.348;20.928;2023-03-01T15:34:34;43.45;;;24.42;;
35326;SDS011;21436;52.348;20.928;2023-03-01T15:37:15;47.85;;;22.92;;
35326;SDS011;21436;52.348;20.928;2023-03-01T15:40:22;139.52;;;53.28;;
35326;SDS011;21436;52.348;20.928;2023-03-01T15:45:27;139.00;;;55.70;;
35326;SDS011;21436;52.348;20.928;2023-03-01T15:48:01;91.03;;;44.33;;
35326;SDS011;21436;52.348;20.928;2023-03-01T15:50:32;55.70;;;30.48;;
35326;SDS011;21436;52.348;20.928;2023-03-01T15:53:12;51.65;;;27.17;;
35326;SDS011;21436;52.348;20.928;2023-03-01T15:55:41;63.08;;;24.08;;
35326;SDS011;21436;52.348;20.928;2023-03-01T15:58:10;48.28;;;23.48;;
35326;SDS011;21436;52.348;20.928;2023-03-01T16:00:41;52.38;;;25.23;;
35326;SDS011;21436;52.348;20.928;2023-03-01T16:03:25;42.20;;;23.67;;
35326;SDS011;21436;52.348;20.928;2023-03-01T16:05:53;45.72;;;22.90;;
35326;SDS011;21436;52.348;20.928;2023-03-01T16:08:21;60.13;;;24.40;;
35326;SDS011;21436;52.348;20.928;2023-03-01T16:10:49;54.25;;;23.25;;
35326;SDS011;21436;52.348;20.928;2023-03-01T16:13:18;47.90;;;24.40;;
35326;SDS011;21436;52.348;20.928;2023-03-01T16:15:46;51.75;;;24.85;;
35326;SDS011;21436;52.348;20.928;2023-03-01T16:18:19;51.80;;;24.17;;
35326;SDS011;21436;52.348;20.928;2023-03-01T16:20:47;61.10;;;26.65;;
35326;SDS011;21436;52.348;20.928;2023-03-01T16:23:15;54.30;;;25.23;;
35326;SDS011;21436;52.348;20.928;2023-03-01T16:25:43;85.57;;;27.77;;
35326;SDS011;21436;52.348;20.928;2023-03-01T16:28:11;63.20;;;30.95;;
35326;SDS011;21436;52.348;20.928;2023-03-01T16:30:38;57.63;;;29.95;;
35326;SDS011;21436;52.348;20.928;2023-03-01T16:33:07;69.20;;;29.20;;
35326;SDS011;21436;52.348;20.928;2023-03-01T16:35:55;79.15;;;29.70;;
35326;SDS011;21436;52.348;20.928;2023-03-01T16:38:22;71.20;;;32.83;;
35326;SDS011;21436;52.348;20.928;2023-03-01T16:40:50;60.13;;;30.05;;
35326;SDS011;21436;52.348;20.928;2023-03-01T16:43:18;52.75;;;27.60;;
35326;SDS011;21436;52.348;20.928;2023-03-01T16:45:46;63.47;;;29.88;;
35326;SDS011;21436;52.348;20.928;2023-03-01T16:48:13;66.10;;;28.30;;
35326;SDS011;21436;52.348;20.928;2023-03-01T16:50:41;87.15;;;28.50;;
35326;SDS011;21436;52.348;20.928;2023-03-01T16:53:09;61.85;;;31.10;;
35326;SDS011;21436;52.348;20.928;2023-03-01T16:55:37;72.00;;;31.48;;
35326;SDS011;21436;52.348;20.928;2023-03-01T16:58:04;65.15;;;31.08;;
35326;SDS011;21436;52.348;20.928;2023-03-01T17:00:32;60.05;;;27.98;;
35326;SDS011;21436;52.348;20.928;2023-03-01T17:03:00;60.78;;;28.05;;
35326;SDS011;21436;52.348;20.928;2023-03-01T17:05:28;60.08;;;27.85;;
35326;SDS011;21436;52.348;20.928;2023-03-01T17:07:55;64.35;;;29.83;;
35326;SDS011;21436;52.348;20.928;2023-03-01T17:10:24;74.82;;;30.75;;
35326;SDS011;21436;52.348;20.928;2023-03-01T17:12:51;69.43;;;31.10;;